Time;durP1;ratioP1;P1;durP2;ratioP2;P2;SDS_P1;SDS_P2;PMS_P1;PMS_P2;Temp;Humidity;BMP_temperature;BMP_pressure;BME280_temperature;BME280_humidity;BME280_pressure;Samples;Min_cycle;Max_cycle;Signal;HPM_P1;HPM_P2
2021/01/08 00:01:46;;;;;;;;;;;2.20;99.90;;;;;;5027093;28;19909;-73
2021/01/08 00:04:12;;;;;;;;;;;2.20;99.90;;;;;;5027618;28;20376;-73
2021/01/08 00:06:37;;;;;;;;;;;2.20;99.90;;;;;;5024443;28;19909;-73
2021/01/08 00:09:03;;;;;;;;;;;2.20;99.90;;;;;;5027677;28;19917;-73
2021/01/08 00:11:29;;;;;;;;;;;2.20;99.90;;;;;;5022696;28;20250;-73
2021/01/08 00:13:55;;;;;;;;;;;2.30;99.90;;;;;;5026277;28;20004;-73
2021/01/08 00:16:20;;;;;;;;;;;2.30;99.90;;;;;;5026433;28;20007;-73
2021/01/08 00:18:49;;;;;;;;;;;2.30;99.90;;;;;;5028218;28;20257;-73
2021/01/08 00:21:14;;;;;;;;;;;2.30;99.90;;;;;;5028015;28;20350;-73
2021/01/08 00:23:40;;;;;;;;;;;2.30;99.90;;;;;;5027906;28;19913;-74
2021/01/08 00:26:07;;;;;;;;;;;2.20;99.90;;;;;;5027726;28;19967;-73
2021/01/08 00:28:33;;;;;;;;;;;2.20;99.90;;;;;;5042705;28;19942;-73
2021/01/08 00:31:01;;;;;;;;;;;2.20;99.90;;;;;;5029091;28;20282;-73
2021/01/08 00:33:27;;;;;;;;;;;2.20;99.90;;;;;;5026551;28;19909;-73
2021/01/08 00:35:55;;;;;;;;;;;2.20;99.90;;;;;;5027153;28;19920;-74
2021/01/08 00:38:20;;;;;;;;;;;2.20;99.90;;;;;;5057928;28;20006;-73
2021/01/08 00:40:49;;;;;;;;;;;2.10;99.90;;;;;;5025890;28;19963;-73
2021/01/08 00:43:14;;;;;;;;;;;2.10;99.90;;;;;;5024938;28;19966;-73
2021/01/08 00:45:40;;;;;;;;;;;2.20;99.90;;;;;;5026655;28;19917;-73
2021/01/08 00:48:08;;;;;;;;;;;2.20;99.90;;;;;;5025659;28;19956;-73
2021/01/08 00:50:33;;;;;;;;;;;2.20;99.90;;;;;;5025745;28;19920;-73
2021/01/08 00:53:04;;;;;;;;;;;2.20;99.90;;;;;;5027365;28;19921;-73
2021/01/08 00:55:31;;;;;;;;;;;2.20;99.90;;;;;;5024971;28;20392;-73
2021/01/08 00:57:57;;;;;;;;;;;2.20;99.90;;;;;;5025698;28;19968;-74
2021/01/08 01:00:22;;;;;;;;;;;2.20;99.90;;;;;;5024808;28;19917;-73
2021/01/08 01:02:48;;;;;;;;;;;2.20;99.90;;;;;;5025280;28;19924;-72
2021/01/08 01:05:14;;;;;;;;;;;2.20;99.90;;;;;;5026855;28;20487;-73
2021/01/08 01:07:41;;;;;;;;;;;2.20;99.90;;;;;;5024552;28;20515;-74
2021/01/08 01:10:07;;;;;;;;;;;2.20;99.90;;;;;;5056573;28;19924;-73
2021/01/08 01:12:33;;;;;;;;;;;2.20;99.90;;;;;;5026525;28;19916;-73
2021/01/08 01:15:00;;;;;;;;;;;2.20;99.90;;;;;;5025637;28;19988;-74
2021/01/08 01:17:28;;;;;;;;;;;2.20;99.90;;;;;;5025583;28;20046;-73
2021/01/08 01:19:56;;;;;;;;;;;2.20;99.90;;;;;;5026141;28;20334;-73
2021/01/08 01:22:21;;;;;;;;;;;2.20;99.90;;;;;;5025231;28;19928;-73
2021/01/08 01:24:49;;;;;;;;;;;2.20;99.90;;;;;;5025281;28;19921;-72
2021/01/08 01:27:15;;;;;;;;;;;2.20;99.90;;;;;;5026838;28;19921;-73
2021/01/08 01:29:41;;;;;;;;;;;2.20;99.90;;;;;;5024142;28;19928;-73
2021/01/08 01:32:06;;;;;;;;;;;2.20;99.90;;;;;;5025080;28;19913;-74
2021/01/08 01:34:32;;;;;;;;;;;2.20;99.90;;;;;;5024901;28;19909;-73
2021/01/08 01:37:00;;;;;;;;;;;2.20;99.90;;;;;;5026452;28;19913;-74
2021/01/08 01:39:25;;;;;;;;;;;2.20;99.90;;;;;;5024354;28;20004;-73
2021/01/08 01:41:51;;;;;;;;;;;2.10;99.90;;;;;;5024829;28;19999;-73
2021/01/08 01:44:16;;;;;;;;;;;2.20;99.90;;;;;;5025865;28;19948;-73
2021/01/08 01:46:42;;;;;;;;;;;2.10;99.90;;;;;;5025180;28;19992;-73
2021/01/08 01:49:10;;;;;;;;;;;2.10;99.90;;;;;;5057985;28;20059;-73
2021/01/08 01:51:36;;;;;;;;;;;2.10;99.90;;;;;;5025712;28;19921;-73
2021/01/08 01:54:01;;;;;;;;;;;2.20;99.90;;;;;;5029358;28;19928;-73
2021/01/08 01:56:29;;;;;;;;;;;2.10;99.90;;;;;;5030348;28;19917;-73
2021/01/08 01:58:57;;;;;;;;;;;2.10;99.90;;;;;;5031103;28;19913;-73
2021/01/08 02:01:22;;;;;;;;;;;2.10;99.90;;;;;;5031193;28;19968;-73
2021/01/08 02:03:51;;;;;;;;;;;2.10;99.90;;;;;;5029597;28;19921;-73
2021/01/08 02:06:21;;;;;;;;;;;2.10;99.90;;;;;;5044281;28;19959;-72
2021/01/08 02:08:51;;;;;;;;;;;2.20;99.90;;;;;;5028513;28;20398;-73
2021/01/08 02:11:17;;;;;;;;;;;2.10;99.90;;;;;;5026870;28;19959;-73
2021/01/08 02:13:55;;;;;;;;;;;2.20;99.90;;;;;;5013962;28;19970;-73
2021/01/08 02:16:24;;;;;;;;;;;2.10;99.90;;;;;;5028065;28;19979;-74
2021/01/08 02:18:50;;;;;;;;;;;2.10;99.90;;;;;;5042677;28;19962;-74
2021/01/08 02:21:20;;;;;;;;;;;2.10;99.90;;;;;;5028563;28;20008;-73
2021/01/08 02:24:04;;;;;;;;;;;2.10;99.90;;;;;;5028777;28;19986;-74
2021/01/08 02:26:32;;;;;;;;;;;2.10;99.90;;;;;;5028545;28;20031;-74
2021/01/08 02:28:58;;;;;;;;;;;2.10;99.90;;;;;;5030209;28;20305;-73
2021/01/08 02:31:23;;;;;;;;;;;2.10;99.90;;;;;;5044629;28;19909;-74
2021/01/08 02:33:49;;;;;;;;;;;2.10;99.90;;;;;;5027060;28;19913;-73
2021/01/08 02:36:14;;;;;;;;;;;2.00;99.90;;;;;;5042252;28;19917;-74
2021/01/08 02:38:42;;;;;;;;;;;2.00;99.90;;;;;;5030282;28;19917;-74
2021/01/08 02:41:08;;;;;;;;;;;2.00;99.90;;;;;;5061041;28;19920;-74
2021/01/08 02:43:34;;;;;;;;;;;2.00;99.90;;;;;;5059350;28;19913;-73
2021/01/08 02:46:00;;;;;;;;;;;2.00;99.90;;;;;;5034606;28;19913;-74
2021/01/08 02:48:25;;;;;;;;;;;2.00;99.90;;;;;;5028893;28;19975;-74
2021/01/08 02:50:51;;;;;;;;;;;2.00;99.90;;;;;;5027266;28;19920;-73
2021/01/08 02:53:18;;;;;;;;;;;2.00;99.90;;;;;;5028804;28;19923;-73
2021/01/08 02:55:51;;;;;;;;;;;2.00;99.90;;;;;;5012664;28;20349;-73
2021/01/08 02:58:17;;;;;;;;;;;2.00;99.90;;;;;;5061976;28;19908;-73
2021/01/08 03:00:42;;;;;;;;;;;2.00;99.90;;;;;;5046078;28;20346;-74
2021/01/08 03:03:08;;;;;;;;;;;2.00;99.90;;;;;;5027573;28;19924;-73
2021/01/08 03:05:36;;;;;;;;;;;2.00;99.90;;;;;;5027680;28;20430;-74
2021/01/08 03:08:02;;;;;;;;;;;2.00;99.90;;;;;;5060189;28;19927;-74
2021/01/08 03:10:27;;;;;;;;;;;2.00;99.90;;;;;;5028313;28;19916;-73
2021/01/08 03:12:55;;;;;;;;;;;2.00;99.90;;;;;;5029302;28;20541;-73
2021/01/08 03:15:20;;;;;;;;;;;2.10;99.90;;;;;;5027667;28;19909;-74
2021/01/08 03:17:48;;;;;;;;;;;2.10;99.90;;;;;;5028288;28;19917;-74
2021/01/08 03:20:16;;;;;;;;;;;2.10;99.90;;;;;;5029513;28;19924;-74
2021/01/08 03:22:44;;;;;;;;;;;2.10;99.90;;;;;;5024926;28;19913;-74
2021/01/08 03:25:12;;;;;;;;;;;2.10;99.90;;;;;;5027162;28;20000;-73
2021/01/08 03:27:37;;;;;;;;;;;2.10;99.90;;;;;;5026674;28;19924;-74
2021/01/08 03:30:04;;;;;;;;;;;2.10;99.90;;;;;;5028401;28;19913;-74
2021/01/08 03:32:31;;;;;;;;;;;2.10;99.90;;;;;;5028860;28;20396;-74
2021/01/08 03:34:57;;;;;;;;;;;2.10;99.90;;;;;;5028336;28;19917;-73
2021/01/08 03:37:24;;;;;;;;;;;2.10;99.90;;;;;;5030919;28;19917;-73
2021/01/08 03:39:50;;;;;;;;;;;2.10;99.90;;;;;;5042918;28;20011;-74
2021/01/08 03:42:20;;;;;;;;;;;2.10;99.90;;;;;;5027911;28;20417;-73
2021/01/08 03:44:46;;;;;;;;;;;2.10;99.90;;;;;;5028534;28;20362;-74
2021/01/08 03:47:12;;;;;;;;;;;2.00;99.90;;;;;;5027435;28;19911;-74
2021/01/08 03:49:40;;;;;;;;;;;2.00;99.90;;;;;;5027512;28;19917;-73
2021/01/08 03:52:06;;;;;;;;;;;2.00;99.90;;;;;;5025989;28;19913;-74
2021/01/08 03:54:31;;;;;;;;;;;2.00;99.90;;;;;;5028306;28;19913;-74
2021/01/08 03:56:57;;;;;;;;;;;2.00;99.90;;;;;;5061377;28;20400;-77
2021/01/08 03:59:22;;;;;;;;;;;2.00;99.90;;;;;;5029137;28;19948;-74
2021/01/08 04:01:48;;;;;;;;;;;2.00;99.90;;;;;;5027172;28;20364;-74
2021/01/08 04:04:16;;;;;;;;;;;2.00;99.90;;;;;;5026884;28;20373;-74
2021/01/08 04:06:41;;;;;;;;;;;2.00;99.90;;;;;;4682995;28;10000580;-74
2021/01/08 04:09:07;;;;;;;;;;;2.00;99.90;;;;;;5026471;28;19925;-74
2021/01/08 04:11:33;;;;;;;;;;;2.00;99.90;;;;;;5025960;28;19909;-75
2021/01/08 04:14:01;;;;;;;;;;;2.00;99.90;;;;;;5027807;28;19913;-75
2021/01/08 04:16:35;;;;;;;;;;;2.00;99.90;;;;;;5026499;28;20050;-74
2021/01/08 04:19:03;;;;;;;;;;;2.00;99.90;;;;;;5026658;28;19916;-74
2021/01/08 04:21:30;;;;;;;;;;;2.00;99.90;;;;;;5027418;28;19920;-74
2021/01/08 04:23:56;;;;;;;;;;;2.00;99.90;;;;;;5027323;28;19925;-74
2021/01/08 04:26:22;;;;;;;;;;;2.00;99.90;;;;;;5028716;28;19917;-74
2021/01/08 04:28:49;;;;;;;;;;;2.00;99.90;;;;;;5026707;28;19913;-74
2021/01/08 04:31:17;;;;;;;;;;;2.00;99.90;;;;;;5027633;28;19916;-74
2021/01/08 04:33:44;;;;;;;;;;;2.00;99.90;;;;;;5026814;28;20040;-75
2021/01/08 04:36:12;;;;;;;;;;;2.00;99.90;;;;;;5026569;28;20031;-74
2021/01/08 04:38:40;;;;;;;;;;;1.90;99.90;;;;;;5027445;28;19919;-74
2021/01/08 04:41:07;;;;;;;;;;;1.90;99.90;;;;;;5027441;28;19919;-74
2021/01/08 04:43:33;;;;;;;;;;;1.90;99.90;;;;;;5028633;28;19917;-74
2021/01/08 04:46:21;;;;;;;;;;;1.90;99.90;;;;;;5041475;28;20173;-74
2021/01/08 04:48:49;;;;;;;;;;;1.90;99.90;;;;;;5027463;28;19909;-74
2021/01/08 04:51:17;;;;;;;;;;;1.90;99.90;;;;;;5027296;28;19975;-74
2021/01/08 04:53:44;;;;;;;;;;;1.90;99.90;;;;;;5023735;28;20348;-74
2021/01/08 04:56:11;;;;;;;;;;;2.00;99.90;;;;;;5041523;28;19920;-75
2021/01/08 04:58:39;;;;;;;;;;;2.00;99.90;;;;;;5012706;28;19928;-74
2021/01/08 05:01:04;;;;;;;;;;;2.00;99.90;;;;;;5027884;28;19912;-75
2021/01/08 05:03:30;;;;;;;;;;;2.00;99.90;;;;;;5024416;28;19931;-74
2021/01/08 05:05:56;;;;;;;;;;;2.00;99.90;;;;;;5028138;28;20439;-75
2021/01/08 05:08:21;;;;;;;;;;;2.00;99.90;;;;;;5027883;28;19988;-75
2021/01/08 05:10:49;;;;;;;;;;;2.00;99.90;;;;;;5059563;28;19909;-75
2021/01/08 05:13:17;;;;;;;;;;;2.00;99.90;;;;;;5028413;28;19913;-75
2021/01/08 05:15:52;;;;;;;;;;;2.10;99.90;;;;;;5010471;28;19980;-75
2021/01/08 05:18:18;;;;;;;;;;;2.10;99.90;;;;;;5027228;28;20394;-75
2021/01/08 05:20:45;;;;;;;;;;;2.10;99.90;;;;;;5042308;28;20008;-75
2021/01/08 05:23:11;;;;;;;;;;;2.10;99.90;;;;;;5028154;28;19923;-75
2021/01/08 05:25:39;;;;;;;;;;;2.10;99.90;;;;;;5026727;28;20477;-74
2021/01/08 05:28:07;;;;;;;;;;;2.10;99.90;;;;;;5026769;28;19909;-75
2021/01/08 05:30:33;;;;;;;;;;;2.10;99.90;;;;;;5063937;28;19920;-75
2021/01/08 05:33:04;;;;;;;;;;;2.10;99.90;;;;;;5031271;28;19910;-75
2021/01/08 05:35:31;;;;;;;;;;;2.10;99.90;;;;;;5045279;28;20012;-75
2021/01/08 05:38:05;;;;;;;;;;;2.10;99.90;;;;;;5030914;28;19917;-75
2021/01/08 05:40:31;;;;;;;;;;;2.10;99.90;;;;;;5032183;28;19909;-75
2021/01/08 05:43:00;;;;;;;;;;;2.10;99.90;;;;;;5030907;28;19913;-75
2021/01/08 05:45:29;;;;;;;;;;;2.10;99.90;;;;;;5046683;28;19936;-75
2021/01/08 05:47:55;;;;;;;;;;;2.10;99.90;;;;;;5028980;28;20444;-75
2021/01/08 05:50:24;;;;;;;;;;;2.10;99.90;;;;;;5030150;28;19909;-75
2021/01/08 05:52:50;;;;;;;;;;;2.10;99.90;;;;;;5032622;28;19923;-75
2021/01/08 05:55:16;;;;;;;;;;;2.20;99.90;;;;;;5063749;28;19960;-75
2021/01/08 05:57:43;;;;;;;;;;;2.10;99.90;;;;;;5030994;28;19941;-75
2021/01/08 06:00:09;;;;;;;;;;;2.20;99.90;;;;;;5031525;28;19909;-75
2021/01/08 06:02:35;;;;;;;;;;;2.20;99.90;;;;;;5030271;28;20015;-75
2021/01/08 06:05:04;;;;;;;;;;;2.20;99.90;;;;;;5044163;28;20515;-75
2021/01/08 06:07:30;;;;;;;;;;;2.20;99.90;;;;;;5028988;28;19923;-75
2021/01/08 06:09:59;;;;;;;;;;;2.20;99.90;;;;;;5031281;28;19972;-74
2021/01/08 06:12:24;;;;;;;;;;;2.20;99.90;;;;;;5063573;28;19909;-75
2021/01/08 06:14:50;;;;;;;;;;;2.20;99.90;;;;;;5031978;28;19916;-75
2021/01/08 06:17:19;;;;;;;;;;;2.20;99.90;;;;;;5063460;28;19909;-75
2021/01/08 06:19:45;;;;;;;;;;;2.20;99.90;;;;;;5031837;28;19920;-74
2021/01/08 06:22:15;;;;;;;;;;;2.20;99.90;;;;;;5029798;28;19913;-75
2021/01/08 06:24:43;;;;;;;;;;;2.20;99.90;;;;;;5030547;28;20345;-75
2021/01/08 06:27:08;;;;;;;;;;;2.20;99.90;;;;;;5029272;28;20000;-75
2021/01/08 06:29:34;;;;;;;;;;;2.20;99.90;;;;;;5031243;28;20079;-75
2021/01/08 06:32:09;;;;;;;;;;;2.20;99.90;;;;;;5014348;28;20335;-75
2021/01/08 06:34:41;;;;;;;;;;;2.20;99.90;;;;;;5031193;28;19924;-75
2021/01/08 06:37:07;;;;;;;;;;;2.20;99.90;;;;;;5042432;28;20000;-74
2021/01/08 06:39:36;;;;;;;;;;;2.20;99.90;;;;;;5029608;28;20467;-75
2021/01/08 06:42:04;;;;;;;;;;;2.20;99.90;;;;;;5028937;28;20048;-73
2021/01/08 06:44:30;;;;;;;;;;;2.20;99.90;;;;;;5042369;28;20023;-74
2021/01/08 06:47:05;;;;;;;;;;;2.20;99.90;;;;;;5061081;28;19924;-74
2021/01/08 06:49:34;;;;;;;;;;;2.20;99.90;;;;;;5042267;28;20345;-74
2021/01/08 06:52:00;;;;;;;;;;;2.20;99.90;;;;;;5042657;28;19924;-74
2021/01/08 06:54:28;;;;;;;;;;;2.20;99.90;;;;;;5028424;28;19920;-75
2021/01/08 06:57:00;;;;;;;;;;;2.20;99.90;;;;;;5063152;28;19917;-74
2021/01/08 06:59:28;;;;;;;;;;;2.20;99.90;;;;;;5043498;28;20366;-74
2021/01/08 07:02:03;;;;;;;;;;;2.20;99.90;;;;;;5029878;28;19913;-75
2021/01/08 07:04:32;;;;;;;;;;;2.20;99.90;;;;;;5044156;28;19924;-75
2021/01/08 07:07:02;;;;;;;;;;;2.20;99.90;;;;;;5043295;28;19917;-74
2021/01/08 07:09:31;;;;;;;;;;;2.20;99.90;;;;;;5027951;28;19928;-74
2021/01/08 07:11:57;;;;;;;;;;;2.20;99.90;;;;;;5028383;28;20025;-74
2021/01/08 07:14:23;;;;;;;;;;;2.20;99.90;;;;;;5025968;28;20330;-74
2021/01/08 07:16:51;;;;;;;;;;;2.30;99.90;;;;;;5026572;28;19913;-75
2021/01/08 07:19:17;;;;;;;;;;;2.30;99.90;;;;;;5024458;28;20253;-74
2021/01/08 07:21:43;;;;;;;;;;;2.30;99.90;;;;;;5026659;28;19991;-75
2021/01/08 07:24:10;;;;;;;;;;;2.30;99.90;;;;;;5025688;28;19917;-74
2021/01/08 07:26:41;;;;;;;;;;;2.30;99.90;;;;;;5024196;28;19921;-74
2021/01/08 07:29:07;;;;;;;;;;;2.30;99.90;;;;;;5023092;28;19917;-74
2021/01/08 07:31:35;;;;;;;;;;;2.30;99.90;;;;;;5022020;28;19971;-74
2021/01/08 07:34:02;;;;;;;;;;;2.30;99.90;;;;;;5055786;28;19917;-74
2021/01/08 07:36:28;;;;;;;;;;;2.30;99.90;;;;;;5024561;28;19908;-74
2021/01/08 07:38:56;;;;;;;;;;;2.30;99.90;;;;;;5024261;28;19916;-75
2021/01/08 07:41:40;;;;;;;;;;;2.30;99.90;;;;;;5040446;28;19909;-74
2021/01/08 07:44:24;;;;;;;;;;;2.40;99.90;;;;;;5026012;28;20004;-74
2021/01/08 07:46:52;;;;;;;;;;;2.40;99.90;;;;;;5026279;28;19940;-74
2021/01/08 07:49:25;;;;;;;;;;;2.40;99.90;;;;;;5024812;28;19910;-75
2021/01/08 07:51:50;;;;;;;;;;;2.40;99.90;;;;;;5059096;28;20453;-76
2021/01/08 07:54:18;;;;;;;;;;;2.40;99.90;;;;;;5026202;28;19969;-75
2021/01/08 07:57:01;;;;;;;;;;;2.40;99.90;;;;;;5059058;28;19909;-75
2021/01/08 07:59:28;;;;;;;;;;;2.40;99.90;;;;;;5058830;28;20537;-75
2021/01/08 08:01:53;;;;;;;;;;;2.30;99.90;;;;;;5057699;28;19909;-75
2021/01/08 08:04:21;;;;;;;;;;;2.30;99.90;;;;;;5028001;28;19932;-75
2021/01/08 08:06:49;;;;;;;;;;;2.40;99.90;;;;;;5056964;28;20485;-75
2021/01/08 08:09:16;;;;;;;;;;;2.40;99.90;;;;;;5026099;28;19913;-75
2021/01/08 08:11:41;;;;;;;;;;;2.40;99.90;;;;;;5025149;28;20314;-75
2021/01/08 08:14:12;;;;;;;;;;;2.40;99.90;;;;;;5025407;28;19916;-75
2021/01/08 08:16:41;;;;;;;;;;;2.30;99.90;;;;;;5025128;28;19921;-75
2021/01/08 08:19:07;;;;;;;;;;;2.30;99.90;;;;;;5026981;28;19909;-75
2021/01/08 08:21:35;;;;;;;;;;;2.30;99.90;;;;;;5059351;28;19917;-75
2021/01/08 08:24:06;;;;;;;;;;;2.40;99.90;;;;;;5042098;28;19974;-75
2021/01/08 08:26:34;;;;;;;;;;;2.30;99.90;;;;;;5026292;28;19927;-75
2021/01/08 08:29:07;;;;;;;;;;;2.40;99.90;;;;;;5056542;28;19999;-75
2021/01/08 08:31:40;;;;;;;;;;;2.40;99.90;;;;;;5049136;28;19910;-75
2021/01/08 08:34:08;;;;;;;;;;;2.40;99.90;;;;;;5010748;28;19928;-75
2021/01/08 08:36:34;;;;;;;;;;;2.40;99.90;;;;;;5058582;28;19917;-75
2021/01/08 08:39:03;;;;;;;;;;;2.50;99.90;;;;;;5023978;28;19963;-75
2021/01/08 08:41:28;;;;;;;;;;;2.40;99.90;;;;;;5023816;28;19991;-75
2021/01/08 08:44:03;;;;;;;;;;;2.50;99.90;;;;;;5009769;28;19912;-75
2021/01/08 08:46:48;;;;;;;;;;;2.50;99.90;;;;;;5040655;28;19992;-76
2021/01/08 08:49:14;;;;;;;;;;;2.50;99.90;;;;;;5024070;28;19948;-75
2021/01/08 08:51:58;;;;;;;;;;;2.50;99.90;;;;;;5025540;28;19923;-75
2021/01/08 08:54:29;;;;;;;;;;;2.50;99.90;;;;;;5009880;28;19916;-75
2021/01/08 08:56:55;;;;;;;;;;;2.60;99.90;;;;;;5022757;28;19931;-75
2021/01/08 08:59:36;;;;;;;;;;;2.50;99.90;;;;;;5042838;28;19921;-75
2021/01/08 09:02:04;;;;;;;;;;;2.60;99.90;;;;;;5025403;28;19970;-75
2021/01/08 09:04:29;;;;;;;;;;;2.60;99.90;;;;;;5024467;28;19964;-75
2021/01/08 09:07:17;;;;;;;;;;;2.60;99.90;;;;;;5024643;28;20006;-75
2021/01/08 09:09:43;;;;;;;;;;;2.60;99.90;;;;;;5024537;28;19995;-75
2021/01/08 09:12:27;;;;;;;;;;;2.60;99.90;;;;;;5025416;28;20358;-75
2021/01/08 09:14:57;;;;;;;;;;;2.60;99.90;;;;;;5024622;28;19921;-75
2021/01/08 09:17:25;;;;;;;;;;;2.70;99.90;;;;;;5023869;28;19913;-75
2021/01/08 09:19:58;;;;;;;;;;;2.70;99.90;;;;;;5023867;28;20595;-75
2021/01/08 09:22:25;;;;;;;;;;;2.70;99.90;;;;;;5024559;28;19913;-75
2021/01/08 09:24:51;;;;;;;;;;;2.70;99.90;;;;;;5056712;28;19920;-75
2021/01/08 09:27:17;;;;;;;;;;;2.70;99.90;;;;;;5024856;28;19917;-75
2021/01/08 09:29:45;;;;;;;;;;;2.80;99.90;;;;;;5056199;28;19917;-75
2021/01/08 09:32:28;;;;;;;;;;;2.80;99.90;;;;;;5025983;28;19936;-75
2021/01/08 09:35:00;;;;;;;;;;;2.80;99.90;;;;;;5038980;28;20047;-75
2021/01/08 09:37:28;;;;;;;;;;;2.80;99.90;;;;;;5022811;28;19913;-75
2021/01/08 09:39:56;;;;;;;;;;;2.80;99.90;;;;;;5022764;28;19917;-75
2021/01/08 09:42:24;;;;;;;;;;;2.80;99.90;;;;;;5040257;28;20000;-75
2021/01/08 09:44:52;;;;;;;;;;;2.80;99.90;;;;;;5023069;28;20551;-75
2021/01/08 09:47:18;;;;;;;;;;;2.80;99.90;;;;;;5025087;28;19913;-75
2021/01/08 09:49:47;;;;;;;;;;;2.80;99.90;;;;;;5022928;28;19913;-75
2021/01/08 09:52:15;;;;;;;;;;;2.80;99.90;;;;;;5040736;28;19920;-75
2021/01/08 09:54:46;;;;;;;;;;;2.80;99.90;;;;;;5024615;28;19921;-75
2021/01/08 09:57:30;;;;;;;;;;;2.80;99.90;;;;;;5056326;28;20052;-75
2021/01/08 09:59:59;;;;;;;;;;;2.80;99.90;;;;;;5024060;28;19952;-75
2021/01/08 10:02:33;;;;;;;;;;;2.70;99.90;;;;;;5056189;28;19909;-74
2021/01/08 10:04:59;;;;;;;;;;;2.70;99.90;;;;;;5025551;28;19948;-74
2021/01/08 10:07:27;;;;;;;;;;;2.70;99.90;;;;;;5006706;28;19999;-75
2021/01/08 10:09:55;;;;;;;;;;;2.70;99.90;;;;;;5024901;28;20380;-75
2021/01/08 10:12:22;;;;;;;;;;;2.80;99.90;;;;;;5024716;28;19995;-75
2021/01/08 10:14:47;;;;;;;;;;;2.80;99.90;;;;;;5025846;28;19964;-75
2021/01/08 10:17:16;;;;;;;;;;;2.80;99.90;;;;;;5027582;28;20067;-75
2021/01/08 10:19:42;;;;;;;;;;;2.80;99.90;;;;;;5026673;28;19920;-74
2021/01/08 10:22:10;;;;;;;;;;;2.80;99.90;;;;;;5060762;28;19919;-74
2021/01/08 10:24:36;;;;;;;;;;;2.80;99.90;;;;;;5042192;28;20122;-74
2021/01/08 10:27:03;;;;;;;;;;;2.80;99.90;;;;;;5028269;28;20021;-74
2021/01/08 10:29:32;;;;;;;;;;;2.80;99.90;;;;;;5040086;28;20245;-75
2021/01/08 10:32:04;;;;;;;;;;;2.80;99.90;;;;;;5027504;28;19924;-75
2021/01/08 10:34:32;;;;;;;;;;;2.80;99.90;;;;;;5060037;28;20530;-74
2021/01/08 10:37:02;;;;;;;;;;;2.70;99.90;;;;;;5026223;28;19909;-75
2021/01/08 10:39:27;;;;;;;;;;;2.70;99.90;;;;;;5026421;28;19913;-75
2021/01/08 10:41:55;;;;;;;;;;;2.70;99.90;;;;;;5027441;28;19919;-75
2021/01/08 10:44:21;;;;;;;;;;;2.70;99.90;;;;;;5026628;28;19995;-75
2021/01/08 10:46:46;;;;;;;;;;;2.80;99.90;;;;;;5028290;28;19925;-75
2021/01/08 10:49:12;;;;;;;;;;;2.80;99.90;;;;;;5024681;28;19916;-75
2021/01/08 10:51:37;;;;;;;;;;;2.80;99.90;;;;;;5030142;28;20014;-75
2021/01/08 10:54:14;;;;;;;;;;;2.90;99.90;;;;;;5027007;28;20338;-75
2021/01/08 10:56:42;;;;;;;;;;;2.80;99.90;;;;;;5025619;28;19970;-75
2021/01/08 10:59:07;;;;;;;;;;;2.90;99.90;;;;;;5028282;28;19924;-75
2021/01/08 11:01:40;;;;;;;;;;;2.90;99.90;;;;;;5025598;28;19909;-75
2021/01/08 11:04:06;;;;;;;;;;;2.90;99.90;;;;;;5025547;28;19932;-75
2021/01/08 11:06:31;;;;;;;;;;;3.00;99.90;;;;;;5026711;28;19914;-75
2021/01/08 11:08:57;;;;;;;;;;;3.00;99.90;;;;;;5025938;28;20012;-75
2021/01/08 11:11:22;;;;;;;;;;;3.00;99.90;;;;;;5025016;28;20015;-75
2021/01/08 11:13:48;;;;;;;;;;;2.90;99.90;;;;;;5027661;28;19955;-75
2021/01/08 11:16:16;;;;;;;;;;;2.90;99.90;;;;;;5026216;28;19909;-75
2021/01/08 11:18:42;;;;;;;;;;;2.80;99.90;;;;;;5025319;28;19909;-74
2021/01/08 11:21:08;;;;;;;;;;;2.80;99.90;;;;;;5058638;28;19956;-74
2021/01/08 11:23:36;;;;;;;;;;;2.80;99.90;;;;;;5026152;28;19960;-74
2021/01/08 11:26:02;;;;;;;;;;;2.80;99.90;;;;;;5025607;28;20255;-73
2021/01/08 11:28:27;;;;;;;;;;;2.80;99.90;;;;;;5026115;28;19920;-74
2021/01/08 11:30:53;;;;;;;;;;;2.80;99.90;;;;;;5027080;28;19912;-74
2021/01/08 11:33:18;;;;;;;;;;;2.80;99.90;;;;;;5027810;28;19924;-74
2021/01/08 11:35:44;;;;;;;;;;;2.90;99.90;;;;;;5027412;28;19928;-74
2021/01/08 11:38:09;;;;;;;;;;;2.80;99.90;;;;;;5026286;28;19924;-74
2021/01/08 11:40:35;;;;;;;;;;;2.90;99.90;;;;;;5026942;28;19999;-74
2021/01/08 11:43:03;;;;;;;;;;;2.90;99.90;;;;;;5022915;28;19921;-76
2021/01/08 11:45:28;;;;;;;;;;;2.90;99.90;;;;;;5026246;28;19915;-76
2021/01/08 11:47:56;;;;;;;;;;;2.90;99.90;;;;;;5026877;28;19909;-75
2021/01/08 11:50:24;;;;;;;;;;;3.00;99.90;;;;;;5024898;28;19924;-76
2021/01/08 11:52:52;;;;;;;;;;;3.00;99.90;;;;;;5026631;28;19917;-76
2021/01/08 11:55:17;;;;;;;;;;;3.00;99.90;;;;;;5024622;28;19964;-75
2021/01/08 11:57:43;;;;;;;;;;;3.00;99.90;;;;;;5026261;28;19996;-75
2021/01/08 12:00:09;;;;;;;;;;;3.00;99.90;;;;;;5026810;28;19908;-75
2021/01/08 12:02:34;;;;;;;;;;;3.10;99.90;;;;;;5024635;28;19923;-71
2021/01/08 12:05:00;;;;;;;;;;;3.10;99.90;;;;;;5022477;28;20270;-71
2021/01/08 12:07:26;;;;;;;;;;;3.10;99.90;;;;;;5021230;28;19909;-71
2021/01/08 12:09:51;;;;;;;;;;;3.10;99.90;;;;;;5024093;28;19943;-71
2021/01/08 12:12:17;;;;;;;;;;;3.20;99.90;;;;;;5038326;28;19967;-72
2021/01/08 12:14:45;;;;;;;;;;;3.10;99.90;;;;;;5027112;28;20285;-72
2021/01/08 12:17:10;;;;;;;;;;;3.10;99.90;;;;;;5023777;28;19922;-73
2021/01/08 12:19:39;;;;;;;;;;;3.10;99.90;;;;;;5025041;28;20047;-71
2021/01/08 12:22:04;;;;;;;;;;;3.20;99.90;;;;;;5057215;28;19921;-71
2021/01/08 12:24:30;;;;;;;;;;;3.20;99.90;;;;;;5026302;28;20005;-72
2021/01/08 12:26:58;;;;;;;;;;;3.30;99.90;;;;;;5026246;28;19925;-72
2021/01/08 12:29:24;;;;;;;;;;;3.30;99.90;;;;;;5026818;28;19960;-72
2021/01/08 12:31:49;;;;;;;;;;;3.30;99.90;;;;;;5025632;28;20353;-72
2021/01/08 12:34:17;;;;;;;;;;;3.30;99.90;;;;;;5024326;28;19916;-72
2021/01/08 12:36:43;;;;;;;;;;;3.40;99.90;;;;;;5024706;28;20380;-72
2021/01/08 12:39:11;;;;;;;;;;;3.40;99.90;;;;;;5025306;28;20011;-71
2021/01/08 12:41:38;;;;;;;;;;;3.40;99.90;;;;;;5058052;28;20435;-71
2021/01/08 12:44:05;;;;;;;;;;;3.40;99.90;;;;;;5025986;28;19924;-72
2021/01/08 12:46:30;;;;;;;;;;;3.40;99.90;;;;;;5025313;28;19978;-71
2021/01/08 12:48:56;;;;;;;;;;;3.40;99.90;;;;;;5026586;28;19970;-72
2021/01/08 12:51:21;;;;;;;;;;;3.40;99.90;;;;;;5023706;28;21750;-72
2021/01/08 12:53:47;;;;;;;;;;;3.50;99.90;;;;;;5026238;28;19913;-72
2021/01/08 12:56:15;;;;;;;;;;;3.50;99.90;;;;;;5025049;28;19916;-72
2021/01/08 12:58:43;;;;;;;;;;;3.50;99.90;;;;;;5025158;28;19917;-72
2021/01/08 13:01:10;;;;;;;;;;;3.50;99.90;;;;;;5023552;28;19920;-72
2021/01/08 13:03:35;;;;;;;;;;;3.40;99.90;;;;;;5022627;28;19957;-72
2021/01/08 13:06:01;;;;;;;;;;;3.50;99.90;;;;;;5023731;28;19956;-72
2021/01/08 13:08:26;;;;;;;;;;;3.50;99.90;;;;;;5056377;28;19948;-72
2021/01/08 13:10:54;;;;;;;;;;;3.40;99.90;;;;;;5023717;28;19908;-71
2021/01/08 13:13:22;;;;;;;;;;;3.50;99.90;;;;;;5024685;28;19928;-72
2021/01/08 13:15:50;;;;;;;;;;;3.50;99.90;;;;;;5025248;28;19921;-71
2021/01/08 13:18:16;;;;;;;;;;;3.50;99.90;;;;;;5026190;28;20532;-72
2021/01/08 13:20:41;;;;;;;;;;;3.50;99.90;;;;;;5022872;28;19909;-72
2021/01/08 13:23:07;;;;;;;;;;;3.40;99.90;;;;;;5025404;28;19917;-71
2021/01/08 13:25:32;;;;;;;;;;;3.40;99.90;;;;;;5023411;28;19909;-71
2021/01/08 13:27:58;;;;;;;;;;;3.50;99.90;;;;;;5025688;28;20016;-71
2021/01/08 13:30:23;;;;;;;;;;;3.50;99.90;;;;;;5040292;28;20322;-71
2021/01/08 13:32:49;;;;;;;;;;;3.50;99.90;;;;;;5024224;28;19916;-72
2021/01/08 13:35:17;;;;;;;;;;;3.50;99.90;;;;;;5021489;28;20331;-72
2021/01/08 13:37:45;;;;;;;;;;;3.50;99.90;;;;;;5023722;28;20000;-71
2021/01/08 13:40:11;;;;;;;;;;;3.50;99.90;;;;;;5023891;28;19913;-71
2021/01/08 13:42:39;;;;;;;;;;;3.50;99.90;;;;;;5025187;28;19919;-71
2021/01/08 13:45:07;;;;;;;;;;;3.50;99.90;;;;;;5025620;28;19974;-71
2021/01/08 13:47:33;;;;;;;;;;;3.50;99.90;;;;;;5022946;28;19938;-71
2021/01/08 13:50:01;;;;;;;;;;;3.50;99.90;;;;;;5025635;28;19912;-71
2021/01/08 13:52:27;;;;;;;;;;;3.50;99.90;;;;;;5030383;28;19921;-71
2021/01/08 13:54:52;;;;;;;;;;;3.50;99.90;;;;;;5028435;28;19979;-72
2021/01/08 13:57:18;;;;;;;;;;;3.50;99.90;;;;;;5029003;28;19915;-71
2021/01/08 13:59:46;;;;;;;;;;;3.40;99.90;;;;;;5044383;28;20004;-71
2021/01/08 14:02:12;;;;;;;;;;;3.40;99.90;;;;;;5029916;28;19917;-71
2021/01/08 14:04:40;;;;;;;;;;;3.40;99.90;;;;;;5043565;28;19916;-71
2021/01/08 14:07:05;;;;;;;;;;;3.30;99.90;;;;;;5058962;28;19913;-71
2021/01/08 14:09:31;;;;;;;;;;;3.30;99.90;;;;;;5028518;28;19977;-71
2021/01/08 14:11:59;;;;;;;;;;;3.20;99.90;;;;;;5027570;28;19917;-71
2021/01/08 14:14:24;;;;;;;;;;;3.20;99.90;;;;;;5029158;28;19921;-71
2021/01/08 14:16:55;;;;;;;;;;;3.20;99.90;;;;;;5045695;28;19928;-71
2021/01/08 14:19:20;;;;;;;;;;;3.20;99.90;;;;;;5028612;28;19928;-71
2021/01/08 14:21:46;;;;;;;;;;;3.20;99.90;;;;;;5060658;28;19913;-71
2021/01/08 14:24:11;;;;;;;;;;;3.20;99.90;;;;;;5043990;28;19925;-71
2021/01/08 14:26:37;;;;;;;;;;;3.10;99.90;;;;;;5026891;28;20008;-73
2021/01/08 14:29:03;;;;;;;;;;;3.20;99.90;;;;;;5028933;28;20517;-71
2021/01/08 14:31:38;;;;;;;;;;;3.20;99.90;;;;;;5060569;28;19940;-71
2021/01/08 14:34:04;;;;;;;;;;;3.10;99.90;;;;;;5027910;28;19909;-71